• Join FlightAware (Why Join?)
  • Login
  • US Flag 
11:54AM EDT


 

Airport Tracker/Info


-or-


 

Live Flight TrackerFlight Track Log ✈ AWI3551 ✈ 10-May-2013 ✈ KBUF - KPHL

Flight Track Log - Related Links

Times and Time Zones

All times are in EDT time to prevent confusion due to time zone crossing. See the AWI3551 flight status page for this flight to view local times or setup timezone preferences in your user account.

Time Position Orientation Groundspeed Altitude Reporting Facility
EDT Latitude Longitude Course Direction KTS MPH feet Rate Location/Type
05:32AM 42.9333 -78.7500 180° South 162 186 1,600  Level Buffalo TRACON
05:33AM 42.8833 -78.7833 206° Southwest 199 229 4,100 1,920 Climbing Buffalo TRACON
05:34AM 42.8169 -78.7661 169° South 256 295 5,700 1,980 Climbing Cleveland Center
05:35AM 42.6240 -78.6848 172° South  Level FlightAware Approximate
05:35AM 42.7500 -78.7511 171° South 277 319 8,000  Level Cleveland Center
05:36AM 42.5213 -78.6647 173° South  Level FlightAware Approximate
05:36AM 42.6767 -78.7306 168° South 277 319 10,200  Level Cleveland Center
05:37AM 42.4182 -78.6500 180° South  Level FlightAware Approximate
05:37AM 42.5889 -78.7161 173° South 291 335 11,800  Level Cleveland Center
05:38AM 42.5033 -78.6992 172° South 309 356 13,800 2,220 Climbing Cleveland Center
05:39AM 42.4133 -78.6819 172° South 321 369 16,300 2,280 Climbing Cleveland Center
05:40AM 42.3211 -78.6567 169° South 332 382 18,400 1,800 Climbing Cleveland Center
05:41AM 42.2344 -78.5892 150° Southeast 339 390 20,000 1,500 Climbing Cleveland Center
05:42AM 42.1436 -78.5192 150° Southeast 356 410 21,400 1,440 Climbing Cleveland Center
05:43AM 42.0506 -78.4411 148° Southeast 379 436 22,900 780 Climbing Cleveland Center
05:44AM 41.9553 -78.3661 150° Southeast 386 444 23,000  Climbing Cleveland Center
05:45AM 41.8619 -78.2886 148° Southeast 391 450 23,000  Level Cleveland Center
05:47AM 41.6742 -78.1361 149° Southeast 391 450 23,000  Level New York Center
05:48AM 41.5908 -78.0714 150° Southeast 391 450 23,000  Level New York Center
05:49AM 41.4975 -77.9950 148° Southeast 391 450 23,000  Level New York Center
05:50AM 41.4017 -77.9239 151° Southeast 391 450 23,000  Level New York Center
05:51AM 41.3083 -77.8475 148° Southeast 391 450 23,000  Level New York Center
05:52AM 41.2128 -77.7742 150° Southeast 396 456 23,000  Level New York Center
05:53AM 41.1172 -77.6981 149° Southeast 396 456 23,000  Level New York Center
05:54AM 41.0233 -77.6253 150° Southeast 396 456 23,000 -180 Level New York Center
05:55AM 40.9297 -77.5497 149° Southeast 396 456 22,700 -1,020 Descending New York Center
05:56AM 40.8378 -77.4803 150° Southeast 396 456 21,000 -1,740 Descending New York Center
05:57AM 40.7481 -77.4114 150° Southeast 384 442 19,300 -1,560 Descending New York Center
05:58AM 40.6619 -77.3456 150° Southeast 372 428 18,000 -660 Descending New York Center
05:59AM 40.5761 -77.2800 150° Southeast 362 417 18,000  Level New York Center
06:00AM 40.5003 -77.1800 135° Southeast 355 409 18,000  Level New York Center
06:01AM 40.4539 -77.0747 120° Southeast 360 414 18,000  Level New York Center
06:02AM 40.4114 -76.9697 118° Southeast 369 425 18,000 -120 Level New York Center
06:03AM 40.3542 -76.8258 118° Southeast 374 430 17,800 -960 Descending New York Center
06:04AM 40.3231 -76.6978 108° East 369 425 16,200 -1,680 Descending New York Center
06:05AM 40.2956 -76.5811 107° East 362 417 14,500 -1,620 Descending New York Center
06:06AM 40.2694 -76.4756 108° East 345 397 13,000 -1,620 Descending New York Center
06:07AM 40.2361 -76.3475 109° East 339 390 11,300 -1,500 Descending New York Center
06:08AM 40.2097 -76.2422 108° East 334 384 10,100 -660 Descending New York Center
06:09AM 40.1778 -76.1175 108° East 334 384 10,000 -120 Descending New York Center
06:10AM 40.1508 -76.0203 110° East 324 373 9,900 -900 Descending New York Center
06:11AM 40.1244 -75.9125 108° East 295 339 8,300 -1,620 Descending New York Center
06:12AM 40.0992 -75.8236 110° East 295 339 6,800 -1,380 Descending New York Center
06:13AM 40.0808 -75.7111 102° East 290 334 5,700 -1,320 Descending New York Center
06:14AM 40.0764 -75.6214 94° East 278 320 4,200 -900 Descending New York Center
06:15AM 40.0744 -75.5153 91° East 273 314 4,000 -120 Descending New York Center
06:16AM 40.0697 -75.4228 94° East 273 314 4,000  Level New York Center
06:17AM 40.0678 -75.3114 91° East 273 314 4,000  Level New York Center
06:17AM 40.0667 -75.2667 92° East 276 318 4,000  Level Philadelphia TRACON
06:18AM 40.0167 -75.2167 143° Southeast 254 292 4,000  Level Philadelphia TRACON
06:19AM 39.9500 -75.1833 159° South 219 252 4,000 -420 Level Philadelphia TRACON
06:20AM 39.9000 -75.1500 153° Southeast 210 242 3,200 -1,080 Descending Philadelphia TRACON
06:21AM 39.8333 -75.1500 180° South 204 235 1,700 -1,260 Descending Philadelphia TRACON